sensor_id;sensor_type;location;lat;lon;timestamp;P1;durP1;ratioP1;P2;durP2;ratioP2
58152;SDS011;43967;51.634;5.566;2023-05-09T00:02:24;14.50;;;8.30;;
58152;SDS011;43967;51.634;5.566;2023-05-09T00:07:46;17.60;;;8.73;;
58152;SDS011;43967;51.634;5.566;2023-05-09T00:13:08;15.07;;;8.23;;
58152;SDS011;43967;51.634;5.566;2023-05-09T00:18:29;15.20;;;8.20;;
58152;SDS011;43967;51.634;5.566;2023-05-09T00:23:51;14.40;;;8.33;;
58152;SDS011;43967;51.634;5.566;2023-05-09T00:29:12;15.43;;;8.60;;
58152;SDS011;43967;51.634;5.566;2023-05-09T00:34:33;15.57;;;8.43;;
58152;SDS011;43967;51.634;5.566;2023-05-09T00:39:55;16.23;;;8.93;;
58152;SDS011;43967;51.634;5.566;2023-05-09T00:45:16;14.73;;;8.43;;
58152;SDS011;43967;51.634;5.566;2023-05-09T00:50:37;15.43;;;8.90;;
58152;SDS011;43967;51.634;5.566;2023-05-09T00:55:59;14.63;;;8.33;;
58152;SDS011;43967;51.634;5.566;2023-05-09T01:01:20;14.73;;;7.97;;
58152;SDS011;43967;51.634;5.566;2023-05-09T01:23:42;13.98;;;7.78;;
58152;SDS011;43967;51.634;5.566;2023-05-09T01:34:37;14.33;;;8.00;;
58152;SDS011;43967;51.634;5.566;2023-05-09T01:40:05;14.60;;;8.38;;
58152;SDS011;43967;51.634;5.566;2023-05-09T01:45:31;14.52;;;7.82;;
58152;SDS011;43967;51.634;5.566;2023-05-09T01:50:53;14.00;;;7.90;;
58152;SDS011;43967;51.634;5.566;2023-05-09T01:56:16;13.95;;;8.48;;
58152;SDS011;43967;51.634;5.566;2023-05-09T02:01:39;12.32;;;7.13;;
58152;SDS011;43967;51.634;5.566;2023-05-09T02:07:00;13.87;;;7.70;;
58152;SDS011;43967;51.634;5.566;2023-05-09T02:12:23;13.33;;;8.20;;
58152;SDS011;43967;51.634;5.566;2023-05-09T02:17:45;13.43;;;7.30;;
58152;SDS011;43967;51.634;5.566;2023-05-09T02:23:06;13.50;;;7.35;;
58152;SDS011;43967;51.634;5.566;2023-05-09T02:28:28;12.90;;;7.27;;
58152;SDS011;43967;51.634;5.566;2023-05-09T02:33:51;13.55;;;6.88;;
58152;SDS011;43967;51.634;5.566;2023-05-09T02:39:14;12.32;;;6.82;;
58152;SDS011;43967;51.634;5.566;2023-05-09T02:44:35;13.13;;;7.40;;
58152;SDS011;43967;51.634;5.566;2023-05-09T02:49:57;11.98;;;6.70;;
58152;SDS011;43967;51.634;5.566;2023-05-09T02:55:18;13.18;;;7.18;;
58152;SDS011;43967;51.634;5.566;2023-05-09T03:00:39;11.97;;;6.50;;
58152;SDS011;43967;51.634;5.566;2023-05-09T03:06:01;12.60;;;7.03;;
58152;SDS011;43967;51.634;5.566;2023-05-09T03:11:22;11.95;;;6.63;;
58152;SDS011;43967;51.634;5.566;2023-05-09T03:16:43;11.23;;;6.20;;
58152;SDS011;43967;51.634;5.566;2023-05-09T03:22:04;11.70;;;6.53;;
58152;SDS011;43967;51.634;5.566;2023-05-09T03:27:26;12.20;;;6.47;;
58152;SDS011;43967;51.634;5.566;2023-05-09T03:32:47;11.93;;;6.60;;
58152;SDS011;43967;51.634;5.566;2023-05-09T03:38:08;11.50;;;6.70;;
58152;SDS011;43967;51.634;5.566;2023-05-09T03:43:30;12.80;;;6.72;;
58152;SDS011;43967;51.634;5.566;2023-05-09T03:48:51;12.75;;;6.22;;
58152;SDS011;43967;51.634;5.566;2023-05-09T03:54:12;11.13;;;6.23;;
58152;SDS011;43967;51.634;5.566;2023-05-09T03:59:33;11.73;;;6.43;;
58152;SDS011;43967;51.634;5.566;2023-05-09T04:04:55;12.30;;;6.72;;
58152;SDS011;43967;51.634;5.566;2023-05-09T04:10:16;12.68;;;7.10;;
58152;SDS011;43967;51.634;5.566;2023-05-09T04:15:37;11.67;;;6.40;;
58152;SDS011;43967;51.634;5.566;2023-05-09T04:20:59;12.65;;;6.65;;
58152;SDS011;43967;51.634;5.566;2023-05-09T04:26:20;12.05;;;6.00;;
58152;SDS011;43967;51.634;5.566;2023-05-09T04:31:41;11.13;;;5.80;;
58152;SDS011;43967;51.634;5.566;2023-05-09T04:37:02;11.32;;;6.20;;
58152;SDS011;43967;51.634;5.566;2023-05-09T04:42:24;11.93;;;6.60;;
58152;SDS011;43967;51.634;5.566;2023-05-09T04:47:45;12.30;;;6.30;;
58152;SDS011;43967;51.634;5.566;2023-05-09T04:53:06;12.50;;;7.43;;
58152;SDS011;43967;51.634;5.566;2023-05-09T04:58:27;12.23;;;6.60;;
58152;SDS011;43967;51.634;5.566;2023-05-09T05:03:49;11.70;;;6.40;;
58152;SDS011;43967;51.634;5.566;2023-05-09T05:09:10;11.77;;;6.33;;
58152;SDS011;43967;51.634;5.566;2023-05-09T05:14:31;11.25;;;5.80;;
58152;SDS011;43967;51.634;5.566;2023-05-09T05:19:53;11.88;;;6.35;;
58152;SDS011;43967;51.634;5.566;2023-05-09T05:25:14;11.27;;;6.17;;
58152;SDS011;43967;51.634;5.566;2023-05-09T05:30:35;11.15;;;6.10;;
58152;SDS011;43967;51.634;5.566;2023-05-09T05:35:57;11.93;;;6.40;;
58152;SDS011;43967;51.634;5.566;2023-05-09T05:41:18;10.23;;;5.70;;
58152;SDS011;43967;51.634;5.566;2023-05-09T05:46:39;11.40;;;5.63;;
58152;SDS011;43967;51.634;5.566;2023-05-09T05:52:00;10.63;;;6.03;;
58152;SDS011;43967;51.634;5.566;2023-05-09T05:57:22;10.75;;;5.88;;
58152;SDS011;43967;51.634;5.566;2023-05-09T06:02:43;9.70;;;5.60;;
58152;SDS011;43967;51.634;5.566;2023-05-09T06:08:04;9.02;;;5.07;;
58152;SDS011;43967;51.634;5.566;2023-05-09T06:13:26;10.20;;;5.32;;
58152;SDS011;43967;51.634;5.566;2023-05-09T06:18:47;10.60;;;5.80;;
58152;SDS011;43967;51.634;5.566;2023-05-09T06:24:08;11.10;;;6.20;;
58152;SDS011;43967;51.634;5.566;2023-05-09T06:29:30;11.15;;;5.90;;
58152;SDS011;43967;51.634;5.566;2023-05-09T06:34:51;10.57;;;6.03;;
58152;SDS011;43967;51.634;5.566;2023-05-09T06:40:12;11.40;;;5.87;;
58152;SDS011;43967;51.634;5.566;2023-05-09T06:45:34;11.73;;;6.22;;
58152;SDS011;43967;51.634;5.566;2023-05-09T06:50:55;11.25;;;6.13;;
58152;SDS011;43967;51.634;5.566;2023-05-09T06:56:16;10.40;;;5.20;;
58152;SDS011;43967;51.634;5.566;2023-05-09T07:01:38;10.45;;;5.55;;
58152;SDS011;43967;51.634;5.566;2023-05-09T07:06:59;10.68;;;5.47;;
58152;SDS011;43967;51.634;5.566;2023-05-09T07:12:21;11.30;;;5.27;;
58152;SDS011;43967;51.634;5.566;2023-05-09T07:17:42;10.38;;;5.15;;
58152;SDS011;43967;51.634;5.566;2023-05-09T07:23:03;10.63;;;5.70;;
58152;SDS011;43967;51.634;5.566;2023-05-09T07:28:25;10.90;;;5.77;;
58152;SDS011;43967;51.634;5.566;2023-05-09T07:33:46;9.53;;;5.60;;
58152;SDS011;43967;51.634;5.566;2023-05-09T07:39:07;10.82;;;5.20;;
58152;SDS011;43967;51.634;5.566;2023-05-09T07:44:29;12.82;;;5.82;;
58152;SDS011;43967;51.634;5.566;2023-05-09T07:49:50;10.40;;;5.40;;
58152;SDS011;43967;51.634;5.566;2023-05-09T07:55:11;10.77;;;5.68;;
58152;SDS011;43967;51.634;5.566;2023-05-09T08:00:32;11.30;;;5.60;;
58152;SDS011;43967;51.634;5.566;2023-05-09T08:05:56;12.53;;;4.90;;
58152;SDS011;43967;51.634;5.566;2023-05-09T08:11:17;9.38;;;4.72;;
58152;SDS011;43967;51.634;5.566;2023-05-09T08:16:38;12.68;;;4.78;;
58152;SDS011;43967;51.634;5.566;2023-05-09T08:22:00;9.37;;;4.60;;
58152;SDS011;43967;51.634;5.566;2023-05-09T08:27:21;10.13;;;4.83;;
58152;SDS011;43967;51.634;5.566;2023-05-09T08:32:42;10.85;;;5.03;;
58152;SDS011;43967;51.634;5.566;2023-05-09T08:38:03;9.10;;;4.53;;
58152;SDS011;43967;51.634;5.566;2023-05-09T08:43:25;8.90;;;4.40;;
58152;SDS011;43967;51.634;5.566;2023-05-09T08:48:48;9.68;;;4.43;;
58152;SDS011;43967;51.634;5.566;2023-05-09T08:54:10;8.82;;;4.15;;
58152;SDS011;43967;51.634;5.566;2023-05-09T08:59:32;9.07;;;4.77;;
58152;SDS011;43967;51.634;5.566;2023-05-09T09:04:55;10.25;;;4.00;;
58152;SDS011;43967;51.634;5.566;2023-05-09T09:10:16;9.57;;;4.38;;
58152;SDS011;43967;51.634;5.566;2023-05-09T09:15:39;8.27;;;4.33;;
58152;SDS011;43967;51.634;5.566;2023-05-09T09:21:04;8.83;;;4.07;;
58152;SDS011;43967;51.634;5.566;2023-05-09T09:26:27;8.75;;;4.25;;
58152;SDS011;43967;51.634;5.566;2023-05-09T09:31:51;9.20;;;4.38;;
58152;SDS011;43967;51.634;5.566;2023-05-09T09:37:22;8.57;;;3.90;;
58152;SDS011;43967;51.634;5.566;2023-05-09T09:42:45;8.65;;;4.03;;
58152;SDS011;43967;51.634;5.566;2023-05-09T09:48:07;8.50;;;3.90;;
58152;SDS011;43967;51.634;5.566;2023-05-09T09:53:28;9.17;;;4.07;;
58152;SDS011;43967;51.634;5.566;2023-05-09T09:58:50;8.80;;;3.67;;
58152;SDS011;43967;51.634;5.566;2023-05-09T10:04:29;8.52;;;3.97;;
58152;SDS011;43967;51.634;5.566;2023-05-09T10:09:53;8.03;;;3.80;;
58152;SDS011;43967;51.634;5.566;2023-05-09T10:15:15;7.90;;;4.30;;
58152;SDS011;43967;51.634;5.566;2023-05-09T10:20:37;8.30;;;4.47;;
58152;SDS011;43967;51.634;5.566;2023-05-09T10:26:04;9.30;;;4.70;;
58152;SDS011;43967;51.634;5.566;2023-05-09T10:31:34;9.53;;;3.70;;
58152;SDS011;43967;51.634;5.566;2023-05-09T10:36:56;7.88;;;4.00;;
58152;SDS011;43967;51.634;5.566;2023-05-09T10:42:18;8.23;;;3.80;;
58152;SDS011;43967;51.634;5.566;2023-05-09T10:47:40;8.03;;;3.77;;
58152;SDS011;43967;51.634;5.566;2023-05-09T10:53:06;8.02;;;3.63;;
58152;SDS011;43967;51.634;5.566;2023-05-09T10:58:29;8.40;;;3.40;;
58152;SDS011;43967;51.634;5.566;2023-05-09T11:03:53;7.93;;;3.47;;
58152;SDS011;43967;51.634;5.566;2023-05-09T11:14:46;8.55;;;3.65;;
58152;SDS011;43967;51.634;5.566;2023-05-09T11:20:09;7.88;;;3.30;;
58152;SDS011;43967;51.634;5.566;2023-05-09T11:25:30;8.40;;;2.90;;
58152;SDS011;43967;51.634;5.566;2023-05-09T11:30:51;7.43;;;3.60;;
58152;SDS011;43967;51.634;5.566;2023-05-09T11:41:50;6.90;;;2.73;;
58152;SDS011;43967;51.634;5.566;2023-05-09T11:47:11;6.97;;;3.10;;
58152;SDS011;43967;51.634;5.566;2023-05-09T11:52:32;7.03;;;3.03;;
58152;SDS011;43967;51.634;5.566;2023-05-09T11:57:54;6.43;;;2.70;;
58152;SDS011;43967;51.634;5.566;2023-05-09T12:03:15;7.37;;;3.23;;
58152;SDS011;43967;51.634;5.566;2023-05-09T12:08:37;7.68;;;3.00;;
58152;SDS011;43967;51.634;5.566;2023-05-09T12:13:58;7.88;;;3.20;;
58152;SDS011;43967;51.634;5.566;2023-05-09T12:19:19;6.97;;;2.80;;
58152;SDS011;43967;51.634;5.566;2023-05-09T12:24:42;6.78;;;2.95;;
58152;SDS011;43967;51.634;5.566;2023-05-09T12:30:04;6.50;;;2.55;;
58152;SDS011;43967;51.634;5.566;2023-05-09T12:35:26;6.37;;;2.83;;
58152;SDS011;43967;51.634;5.566;2023-05-09T12:40:48;6.28;;;2.67;;
58152;SDS011;43967;51.634;5.566;2023-05-09T12:46:20;6.75;;;3.00;;
58152;SDS011;43967;51.634;5.566;2023-05-09T12:51:46;7.47;;;2.60;;
58152;SDS011;43967;51.634;5.566;2023-05-09T12:57:19;6.73;;;2.77;;
58152;SDS011;43967;51.634;5.566;2023-05-09T13:02:41;6.70;;;2.88;;
58152;SDS011;43967;51.634;5.566;2023-05-09T13:08:02;6.50;;;2.80;;
58152;SDS011;43967;51.634;5.566;2023-05-09T13:13:24;6.47;;;2.50;;
58152;SDS011;43967;51.634;5.566;2023-05-09T13:18:46;6.00;;;2.60;;
58152;SDS011;43967;51.634;5.566;2023-05-09T13:24:07;6.35;;;2.70;;
58152;SDS011;43967;51.634;5.566;2023-05-09T13:29:29;6.30;;;2.50;;
58152;SDS011;43967;51.634;5.566;2023-05-09T13:34:50;5.93;;;2.30;;
58152;SDS011;43967;51.634;5.566;2023-05-09T13:40:12;6.53;;;2.63;;
58152;SDS011;43967;51.634;5.566;2023-05-09T13:45:33;7.33;;;2.67;;
58152;SDS011;43967;51.634;5.566;2023-05-09T13:50:55;6.20;;;2.40;;
58152;SDS011;43967;51.634;5.566;2023-05-09T13:56:16;6.25;;;2.40;;
58152;SDS011;43967;51.634;5.566;2023-05-09T14:01:37;5.90;;;2.55;;
58152;SDS011;43967;51.634;5.566;2023-05-09T14:06:59;5.97;;;2.00;;
58152;SDS011;43967;51.634;5.566;2023-05-09T14:12:20;5.90;;;2.22;;
58152;SDS011;43967;51.634;5.566;2023-05-09T14:17:43;6.72;;;2.50;;
58152;SDS011;43967;51.634;5.566;2023-05-09T14:23:04;6.07;;;2.40;;
58152;SDS011;43967;51.634;5.566;2023-05-09T14:28:26;6.85;;;2.30;;
58152;SDS011;43967;51.634;5.566;2023-05-09T14:33:47;6.35;;;2.50;;
58152;SDS011;43967;51.634;5.566;2023-05-09T14:39:08;5.70;;;2.10;;
58152;SDS011;43967;51.634;5.566;2023-05-09T14:44:29;6.40;;;2.63;;
58152;SDS011;43967;51.634;5.566;2023-05-09T14:49:51;6.00;;;2.53;;
58152;SDS011;43967;51.634;5.566;2023-05-09T14:55:12;8.57;;;2.70;;
58152;SDS011;43967;51.634;5.566;2023-05-09T15:00:34;6.30;;;2.40;;
58152;SDS011;43967;51.634;5.566;2023-05-09T15:05:55;6.88;;;2.55;;
58152;SDS011;43967;51.634;5.566;2023-05-09T15:11:17;6.78;;;2.50;;
58152;SDS011;43967;51.634;5.566;2023-05-09T15:16:38;6.97;;;2.30;;
58152;SDS011;43967;51.634;5.566;2023-05-09T15:22:00;5.65;;;2.10;;
58152;SDS011;43967;51.634;5.566;2023-05-09T15:27:23;7.90;;;2.50;;
58152;SDS011;43967;51.634;5.566;2023-05-09T15:32:44;5.70;;;2.20;;
58152;SDS011;43967;51.634;5.566;2023-05-09T15:38:05;9.40;;;3.10;;
58152;SDS011;43967;51.634;5.566;2023-05-09T15:43:27;7.45;;;3.20;;
58152;SDS011;43967;51.634;5.566;2023-05-09T15:48:48;8.05;;;3.13;;
58152;SDS011;43967;51.634;5.566;2023-05-09T15:54:09;6.97;;;2.33;;
58152;SDS011;43967;51.634;5.566;2023-05-09T15:59:30;6.10;;;2.58;;
58152;SDS011;43967;51.634;5.566;2023-05-09T16:04:52;6.10;;;2.17;;
58152;SDS011;43967;51.634;5.566;2023-05-09T16:10:13;8.63;;;2.30;;
58152;SDS011;43967;51.634;5.566;2023-05-09T16:15:34;7.47;;;2.30;;
58152;SDS011;43967;51.634;5.566;2023-05-09T16:20:56;7.30;;;2.40;;
58152;SDS011;43967;51.634;5.566;2023-05-09T16:26:17;6.93;;;2.43;;
58152;SDS011;43967;51.634;5.566;2023-05-09T16:31:39;6.67;;;2.67;;
58152;SDS011;43967;51.634;5.566;2023-05-09T16:37:01;5.97;;;2.08;;
58152;SDS011;43967;51.634;5.566;2023-05-09T16:42:24;6.47;;;1.88;;
58152;SDS011;43967;51.634;5.566;2023-05-09T16:47:45;5.77;;;2.10;;
58152;SDS011;43967;51.634;5.566;2023-05-09T16:53:06;7.32;;;2.15;;
58152;SDS011;43967;51.634;5.566;2023-05-09T16:58:28;5.82;;;2.10;;
58152;SDS011;43967;51.634;5.566;2023-05-09T17:03:49;6.37;;;2.10;;
58152;SDS011;43967;51.634;5.566;2023-05-09T17:09:10;5.85;;;2.30;;
58152;SDS011;43967;51.634;5.566;2023-05-09T17:14:32;5.60;;;1.90;;
58152;SDS011;43967;51.634;5.566;2023-05-09T17:19:53;5.93;;;2.30;;
58152;SDS011;43967;51.634;5.566;2023-05-09T17:25:14;5.60;;;1.90;;
58152;SDS011;43967;51.634;5.566;2023-05-09T17:30:36;5.50;;;2.10;;
58152;SDS011;43967;51.634;5.566;2023-05-09T17:35:57;6.07;;;2.10;;
58152;SDS011;43967;51.634;5.566;2023-05-09T17:41:19;5.60;;;1.90;;
58152;SDS011;43967;51.634;5.566;2023-05-09T17:46:40;5.75;;;2.00;;
58152;SDS011;43967;51.634;5.566;2023-05-09T17:52:01;6.10;;;1.80;;
58152;SDS011;43967;51.634;5.566;2023-05-09T17:57:23;5.90;;;1.90;;
58152;SDS011;43967;51.634;5.566;2023-05-09T18:02:44;6.05;;;2.17;;
58152;SDS011;43967;51.634;5.566;2023-05-09T18:08:05;5.50;;;2.00;;
58152;SDS011;43967;51.634;5.566;2023-05-09T18:13:27;5.10;;;1.90;;
58152;SDS011;43967;51.634;5.566;2023-05-09T18:18:48;5.50;;;2.17;;
58152;SDS011;43967;51.634;5.566;2023-05-09T18:24:09;5.60;;;2.15;;
58152;SDS011;43967;51.634;5.566;2023-05-09T18:29:30;5.63;;;1.83;;
58152;SDS011;43967;51.634;5.566;2023-05-09T18:34:52;5.23;;;1.70;;
58152;SDS011;43967;51.634;5.566;2023-05-09T18:40:13;5.63;;;2.30;;
58152;SDS011;43967;51.634;5.566;2023-05-09T18:45:34;4.85;;;1.60;;
58152;SDS011;43967;51.634;5.566;2023-05-09T18:50:56;5.27;;;1.77;;
58152;SDS011;43967;51.634;5.566;2023-05-09T18:56:17;5.30;;;1.88;;
58152;SDS011;43967;51.634;5.566;2023-05-09T19:01:38;5.85;;;2.47;;
58152;SDS011;43967;51.634;5.566;2023-05-09T19:07:00;5.47;;;2.07;;
58152;SDS011;43967;51.634;5.566;2023-05-09T19:12:21;5.50;;;2.20;;
58152;SDS011;43967;51.634;5.566;2023-05-09T19:17:42;5.50;;;1.95;;
58152;SDS011;43967;51.634;5.566;2023-05-09T19:23:03;5.78;;;2.15;;
58152;SDS011;43967;51.634;5.566;2023-05-09T19:28:25;5.70;;;2.30;;
58152;SDS011;43967;51.634;5.566;2023-05-09T19:33:46;5.43;;;1.92;;
58152;SDS011;43967;51.634;5.566;2023-05-09T19:39:07;5.50;;;2.00;;
58152;SDS011;43967;51.634;5.566;2023-05-09T19:44:28;6.07;;;2.07;;
58152;SDS011;43967;51.634;5.566;2023-05-09T19:49:50;5.63;;;2.10;;
58152;SDS011;43967;51.634;5.566;2023-05-09T19:55:11;6.75;;;2.20;;
58152;SDS011;43967;51.634;5.566;2023-05-09T20:00:34;5.80;;;2.43;;
58152;SDS011;43967;51.634;5.566;2023-05-09T20:05:55;5.60;;;1.90;;
58152;SDS011;43967;51.634;5.566;2023-05-09T20:11:16;6.03;;;2.53;;
58152;SDS011;43967;51.634;5.566;2023-05-09T20:16:38;5.70;;;2.20;;
58152;SDS011;43967;51.634;5.566;2023-05-09T20:21:59;5.87;;;2.17;;
58152;SDS011;43967;51.634;5.566;2023-05-09T20:27:21;5.93;;;2.50;;
58152;SDS011;43967;51.634;5.566;2023-05-09T20:32:42;5.95;;;2.30;;
58152;SDS011;43967;51.634;5.566;2023-05-09T20:38:04;5.80;;;2.33;;
58152;SDS011;43967;51.634;5.566;2023-05-09T20:43:25;5.93;;;2.53;;
58152;SDS011;43967;51.634;5.566;2023-05-09T20:48:46;5.80;;;2.30;;
58152;SDS011;43967;51.634;5.566;2023-05-09T20:54:08;6.40;;;2.97;;
58152;SDS011;43967;51.634;5.566;2023-05-09T20:59:29;5.73;;;2.40;;
58152;SDS011;43967;51.634;5.566;2023-05-09T21:04:50;6.50;;;2.70;;
58152;SDS011;43967;51.634;5.566;2023-05-09T21:10:12;5.93;;;2.40;;
58152;SDS011;43967;51.634;5.566;2023-05-09T21:15:33;6.27;;;2.40;;
58152;SDS011;43967;51.634;5.566;2023-05-09T21:20:54;7.00;;;2.78;;
58152;SDS011;43967;51.634;5.566;2023-05-09T21:26:16;5.80;;;2.20;;
58152;SDS011;43967;51.634;5.566;2023-05-09T21:31:37;6.03;;;2.37;;
58152;SDS011;43967;51.634;5.566;2023-05-09T21:36:58;6.65;;;2.67;;
58152;SDS011;43967;51.634;5.566;2023-05-09T21:42:19;5.80;;;2.30;;
58152;SDS011;43967;51.634;5.566;2023-05-09T21:47:43;6.50;;;2.70;;
58152;SDS011;43967;51.634;5.566;2023-05-09T21:53:04;6.07;;;2.50;;
58152;SDS011;43967;51.634;5.566;2023-05-09T21:58:25;6.00;;;2.72;;
58152;SDS011;43967;51.634;5.566;2023-05-09T22:03:47;6.00;;;2.40;;
58152;SDS011;43967;51.634;5.566;2023-05-09T22:09:08;5.93;;;2.40;;
58152;SDS011;43967;51.634;5.566;2023-05-09T22:14:30;6.55;;;2.22;;
58152;SDS011;43967;51.634;5.566;2023-05-09T22:19:51;5.90;;;2.25;;
58152;SDS011;43967;51.634;5.566;2023-05-09T22:25:12;5.73;;;2.10;;
58152;SDS011;43967;51.634;5.566;2023-05-09T22:30:33;5.60;;;2.20;;
58152;SDS011;43967;51.634;5.566;2023-05-09T22:35:55;5.68;;;2.30;;
58152;SDS011;43967;51.634;5.566;2023-05-09T22:41:18;5.80;;;2.70;;
58152;SDS011;43967;51.634;5.566;2023-05-09T22:46:40;5.67;;;2.27;;
58152;SDS011;43967;51.634;5.566;2023-05-09T22:52:01;5.90;;;2.38;;
58152;SDS011;43967;51.634;5.566;2023-05-09T22:57:22;5.63;;;2.30;;
58152;SDS011;43967;51.634;5.566;2023-05-09T23:02:44;5.80;;;2.27;;
58152;SDS011;43967;51.634;5.566;2023-05-09T23:08:05;5.70;;;2.15;;
58152;SDS011;43967;51.634;5.566;2023-05-09T23:13:26;6.07;;;2.38;;
58152;SDS011;43967;51.634;5.566;2023-05-09T23:18:47;6.10;;;2.57;;
58152;SDS011;43967;51.634;5.566;2023-05-09T23:24:09;6.30;;;2.17;;
58152;SDS011;43967;51.634;5.566;2023-05-09T23:29:30;5.78;;;2.47;;
58152;SDS011;43967;51.634;5.566;2023-05-09T23:34:51;6.10;;;2.40;;
58152;SDS011;43967;51.634;5.566;2023-05-09T23:40:13;6.20;;;2.50;;
58152;SDS011;43967;51.634;5.566;2023-05-09T23:45:34;6.20;;;2.38;;
58152;SDS011;43967;51.634;5.566;2023-05-09T23:50:55;5.60;;;2.33;;
58152;SDS011;43967;51.634;5.566;2023-05-09T23:56:17;5.67;;;2.20;;
